sensor_id;sensor_type;location;lat;lon;timestamp;pressure;altitude;pressure_sealevel;temperature;humidity
78892;BME280;68368;51.728;5.248;2023-06-10T00:01:34;101397.54;;;21.26;49.16
78892;BME280;68368;51.728;5.248;2023-06-10T00:03:37;101397.73;;;21.26;49.05
78892;BME280;68368;51.728;5.248;2023-06-10T00:05:40;101398.19;;;21.24;49.11
78892;BME280;68368;51.728;5.248;2023-06-10T00:07:44;101398.10;;;21.22;49.18
78892;BME280;68368;51.728;5.248;2023-06-10T00:09:47;101390.75;;;21.21;49.14
78892;BME280;68368;51.728;5.248;2023-06-10T00:11:50;101400.38;;;21.20;49.28
78892;BME280;68368;51.728;5.248;2023-06-10T00:13:53;101399.66;;;21.19;49.29
78892;BME280;68368;51.728;5.248;2023-06-10T00:15:56;101402.59;;;21.19;49.41
78892;BME280;68368;51.728;5.248;2023-06-10T00:17:59;101401.59;;;21.17;49.44
78892;BME280;68368;51.728;5.248;2023-06-10T00:20:03;101401.72;;;21.14;49.46
78892;BME280;68368;51.728;5.248;2023-06-10T00:22:06;101403.06;;;21.12;49.53
78892;BME280;68368;51.728;5.248;2023-06-10T00:24:10;101401.61;;;21.08;49.69
78892;BME280;68368;51.728;5.248;2023-06-10T00:26:14;101395.15;;;21.03;49.81
78892;BME280;68368;51.728;5.248;2023-06-10T00:28:17;101393.58;;;20.98;49.95
78892;BME280;68368;51.728;5.248;2023-06-10T00:30:21;101398.73;;;20.96;50.11
78892;BME280;68368;51.728;5.248;2023-06-10T00:32:24;101400.17;;;20.91;50.45
78892;BME280;68368;51.728;5.248;2023-06-10T00:34:28;101403.06;;;20.88;50.64
78892;BME280;68368;51.728;5.248;2023-06-10T00:36:31;101407.78;;;20.83;50.63
78892;BME280;68368;51.728;5.248;2023-06-10T00:38:34;101408.08;;;20.76;51.06
78892;BME280;68368;51.728;5.248;2023-06-10T00:40:41;101409.83;;;20.69;51.35
78892;BME280;68368;51.728;5.248;2023-06-10T00:42:44;101411.42;;;20.61;51.60
78892;BME280;68368;51.728;5.248;2023-06-10T00:44:48;101409.11;;;20.52;52.33
78892;BME280;68368;51.728;5.248;2023-06-10T00:46:51;101410.38;;;20.43;52.78
78892;BME280;68368;51.728;5.248;2023-06-10T00:48:55;101407.89;;;20.33;53.14
78892;BME280;68368;51.728;5.248;2023-06-10T00:51:00;101411.33;;;20.24;53.59
78892;BME280;68368;51.728;5.248;2023-06-10T00:53:04;101407.54;;;20.15;53.95
78892;BME280;68368;51.728;5.248;2023-06-10T00:55:08;101403.10;;;20.05;54.34
78892;BME280;68368;51.728;5.248;2023-06-10T00:57:13;101407.29;;;20.00;54.67
78892;BME280;68368;51.728;5.248;2023-06-10T00:59:19;101405.56;;;19.93;54.65
78892;BME280;68368;51.728;5.248;2023-06-10T01:01:24;101410.66;;;19.87;54.99
78892;BME280;68368;51.728;5.248;2023-06-10T01:03:28;101412.15;;;19.82;55.32
78892;BME280;68368;51.728;5.248;2023-06-10T01:05:32;101412.01;;;19.76;55.48
78892;BME280;68368;51.728;5.248;2023-06-10T01:07:39;101415.70;;;19.69;55.88
78892;BME280;68368;51.728;5.248;2023-06-10T01:09:52;101412.84;;;19.63;56.23
78892;BME280;68368;51.728;5.248;2023-06-10T01:12:01;101416.48;;;19.57;56.52
78892;BME280;68368;51.728;5.248;2023-06-10T01:14:06;101409.91;;;19.50;56.62
78892;BME280;68368;51.728;5.248;2023-06-10T01:16:10;101409.77;;;19.45;56.78
78892;BME280;68368;51.728;5.248;2023-06-10T01:18:14;101411.95;;;19.39;56.93
78892;BME280;68368;51.728;5.248;2023-06-10T01:20:18;101413.73;;;19.35;56.91
78892;BME280;68368;51.728;5.248;2023-06-10T01:22:21;101417.29;;;19.31;57.15
78892;BME280;68368;51.728;5.248;2023-06-10T01:24:24;101417.06;;;19.28;57.21
78892;BME280;68368;51.728;5.248;2023-06-10T01:26:31;101423.80;;;19.26;57.08
78892;BME280;68368;51.728;5.248;2023-06-10T01:28:38;101420.11;;;19.22;57.20
78892;BME280;68368;51.728;5.248;2023-06-10T01:30:50;101419.48;;;19.21;57.26
78892;BME280;68368;51.728;5.248;2023-06-10T01:32:59;101421.17;;;19.19;57.11
78892;BME280;68368;51.728;5.248;2023-06-10T01:35:06;101426.44;;;19.17;56.98
78892;BME280;68368;51.728;5.248;2023-06-10T01:37:13;101430.13;;;19.15;57.04
78892;BME280;68368;51.728;5.248;2023-06-10T01:39:22;101428.91;;;19.13;57.05
78892;BME280;68368;51.728;5.248;2023-06-10T01:41:27;101427.54;;;19.12;57.06
78892;BME280;68368;51.728;5.248;2023-06-10T01:43:37;101427.80;;;19.10;57.08
78892;BME280;68368;51.728;5.248;2023-06-10T01:45:40;101422.65;;;19.08;57.16
78892;BME280;68368;51.728;5.248;2023-06-10T01:47:46;101421.09;;;19.06;57.21
78892;BME280;68368;51.728;5.248;2023-06-10T01:49:50;101419.39;;;19.03;57.24
78892;BME280;68368;51.728;5.248;2023-06-10T01:51:54;101423.73;;;19.03;57.21
78892;BME280;68368;51.728;5.248;2023-06-10T01:53:57;101423.46;;;19.00;57.49
78892;BME280;68368;51.728;5.248;2023-06-10T01:56:01;101422.61;;;18.99;57.43
78892;BME280;68368;51.728;5.248;2023-06-10T01:58:04;101421.65;;;18.95;57.50
78892;BME280;68368;51.728;5.248;2023-06-10T02:00:10;101422.84;;;18.93;57.76
78892;BME280;68368;51.728;5.248;2023-06-10T02:02:12;101420.58;;;18.90;57.84
78892;BME280;68368;51.728;5.248;2023-06-10T02:04:15;101426.11;;;18.86;58.06
78892;BME280;68368;51.728;5.248;2023-06-10T02:06:20;101426.73;;;18.84;58.34
78892;BME280;68368;51.728;5.248;2023-06-10T02:08:26;101426.21;;;18.84;58.12
78892;BME280;68368;51.728;5.248;2023-06-10T02:10:29;101427.73;;;18.81;58.31
78892;BME280;68368;51.728;5.248;2023-06-10T02:12:33;101423.51;;;18.78;58.21
78892;BME280;68368;51.728;5.248;2023-06-10T02:14:36;101425.05;;;18.75;58.39
78892;BME280;68368;51.728;5.248;2023-06-10T02:16:39;101426.17;;;18.74;58.69
78892;BME280;68368;51.728;5.248;2023-06-10T02:18:42;101423.52;;;18.72;58.73
78892;BME280;68368;51.728;5.248;2023-06-10T02:20:47;101425.23;;;18.69;58.87
78892;BME280;68368;51.728;5.248;2023-06-10T02:22:54;101424.91;;;18.68;58.98
78892;BME280;68368;51.728;5.248;2023-06-10T02:24:57;101429.46;;;18.66;58.91
78892;BME280;68368;51.728;5.248;2023-06-10T02:27:01;101427.13;;;18.61;59.05
78892;BME280;68368;51.728;5.248;2023-06-10T02:29:05;101433.16;;;18.58;59.16
78892;BME280;68368;51.728;5.248;2023-06-10T02:31:08;101431.73;;;18.53;59.40
78892;BME280;68368;51.728;5.248;2023-06-10T02:33:11;101435.10;;;18.48;59.39
78892;BME280;68368;51.728;5.248;2023-06-10T02:35:15;101432.02;;;18.44;59.48
78892;BME280;68368;51.728;5.248;2023-06-10T02:37:19;101428.15;;;18.41;59.66
78892;BME280;68368;51.728;5.248;2023-06-10T02:39:23;101428.57;;;18.40;59.84
78892;BME280;68368;51.728;5.248;2023-06-10T02:41:26;101430.63;;;18.37;59.81
78892;BME280;68368;51.728;5.248;2023-06-10T02:43:29;101429.09;;;18.35;59.95
78892;BME280;68368;51.728;5.248;2023-06-10T02:45:33;101434.48;;;18.34;59.74
78892;BME280;68368;51.728;5.248;2023-06-10T02:47:39;101429.88;;;18.32;60.18
78892;BME280;68368;51.728;5.248;2023-06-10T02:49:42;101432.11;;;18.30;60.05
78892;BME280;68368;51.728;5.248;2023-06-10T02:51:46;101433.80;;;18.28;60.09
78892;BME280;68368;51.728;5.248;2023-06-10T02:53:49;101432.79;;;18.26;60.25
78892;BME280;68368;51.728;5.248;2023-06-10T02:55:52;101431.27;;;18.23;60.25
78892;BME280;68368;51.728;5.248;2023-06-10T02:57:55;101432.83;;;18.20;60.40
78892;BME280;68368;51.728;5.248;2023-06-10T02:59:59;101427.70;;;18.17;60.34
78892;BME280;68368;51.728;5.248;2023-06-10T03:02:05;101429.60;;;18.13;60.50
78892;BME280;68368;51.728;5.248;2023-06-10T03:04:08;101431.10;;;18.12;60.51
78892;BME280;68368;51.728;5.248;2023-06-10T03:06:14;101427.06;;;18.08;60.66
78892;BME280;68368;51.728;5.248;2023-06-10T03:08:17;101428.52;;;18.07;60.36
78892;BME280;68368;51.728;5.248;2023-06-10T03:10:24;101429.84;;;18.06;60.29
78892;BME280;68368;51.728;5.248;2023-06-10T03:12:29;101428.84;;;18.03;60.59
78892;BME280;68368;51.728;5.248;2023-06-10T03:14:32;101435.50;;;18.03;60.50
78892;BME280;68368;51.728;5.248;2023-06-10T03:16:37;101437.35;;;18.02;60.48
78892;BME280;68368;51.728;5.248;2023-06-10T03:18:40;101434.14;;;18.01;60.37
78892;BME280;68368;51.728;5.248;2023-06-10T03:20:43;101437.55;;;18.01;60.53
78892;BME280;68368;51.728;5.248;2023-06-10T03:22:47;101439.02;;;18.00;60.42
78892;BME280;68368;51.728;5.248;2023-06-10T03:24:50;101444.16;;;18.02;60.28
78892;BME280;68368;51.728;5.248;2023-06-10T03:26:53;101445.83;;;18.01;60.27
78892;BME280;68368;51.728;5.248;2023-06-10T03:28:59;101446.70;;;18.01;60.27
78892;BME280;68368;51.728;5.248;2023-06-10T03:31:03;101443.42;;;18.02;60.02
78892;BME280;68368;51.728;5.248;2023-06-10T03:33:06;101443.55;;;18.04;59.83
78892;BME280;68368;51.728;5.248;2023-06-10T03:35:10;101442.36;;;18.07;59.84
78892;BME280;68368;51.728;5.248;2023-06-10T03:37:13;101448.23;;;18.10;59.68
78892;BME280;68368;51.728;5.248;2023-06-10T03:39:17;101448.98;;;18.14;59.46
78892;BME280;68368;51.728;5.248;2023-06-10T03:41:21;101448.70;;;18.18;59.33
78892;BME280;68368;51.728;5.248;2023-06-10T03:43:24;101450.81;;;18.30;58.97
78892;BME280;68368;51.728;5.248;2023-06-10T03:45:27;101455.39;;;18.44;58.66
78892;BME280;68368;51.728;5.248;2023-06-10T03:47:34;101459.27;;;18.58;58.05
78892;BME280;68368;51.728;5.248;2023-06-10T03:49:39;101455.36;;;18.62;57.92
78892;BME280;68368;51.728;5.248;2023-06-10T03:51:42;101457.78;;;18.59;57.76
78892;BME280;68368;51.728;5.248;2023-06-10T03:53:51;101460.48;;;18.59;57.76
78892;BME280;68368;51.728;5.248;2023-06-10T03:55:54;101461.44;;;18.62;57.64
78892;BME280;68368;51.728;5.248;2023-06-10T03:57:58;101463.34;;;18.81;57.27
78892;BME280;68368;51.728;5.248;2023-06-10T04:00:01;101456.80;;;19.14;56.68
78892;BME280;68368;51.728;5.248;2023-06-10T04:02:04;101460.99;;;19.52;55.79
78892;BME280;68368;51.728;5.248;2023-06-10T04:04:08;101458.98;;;19.87;54.91
78892;BME280;68368;51.728;5.248;2023-06-10T04:06:11;101456.50;;;20.22;54.16
78892;BME280;68368;51.728;5.248;2023-06-10T04:08:15;101461.20;;;20.57;53.19
78892;BME280;68368;51.728;5.248;2023-06-10T04:10:19;101458.66;;;20.92;52.21
78892;BME280;68368;51.728;5.248;2023-06-10T04:12:24;101459.35;;;21.26;51.21
78892;BME280;68368;51.728;5.248;2023-06-10T04:14:27;101456.61;;;21.58;50.20
78892;BME280;68368;51.728;5.248;2023-06-10T04:16:32;101452.04;;;21.90;49.44
78892;BME280;68368;51.728;5.248;2023-06-10T04:18:36;101452.16;;;22.22;48.66
78892;BME280;68368;51.728;5.248;2023-06-10T04:20:39;101458.23;;;22.57;48.02
78892;BME280;68368;51.728;5.248;2023-06-10T04:22:43;101459.03;;;22.83;46.62
78892;BME280;68368;51.728;5.248;2023-06-10T04:24:46;101462.00;;;23.08;45.90
78892;BME280;68368;51.728;5.248;2023-06-10T04:26:49;101465.14;;;23.40;45.76
78892;BME280;68368;51.728;5.248;2023-06-10T04:28:53;101459.50;;;23.74;44.97
78892;BME280;68368;51.728;5.248;2023-06-10T04:30:56;101464.95;;;24.06;44.05
78892;BME280;68368;51.728;5.248;2023-06-10T04:33:03;101465.08;;;24.36;43.79
78892;BME280;68368;51.728;5.248;2023-06-10T04:35:12;101467.71;;;24.75;43.03
78892;BME280;68368;51.728;5.248;2023-06-10T04:37:17;101469.79;;;25.10;42.29
78892;BME280;68368;51.728;5.248;2023-06-10T04:39:21;101467.24;;;25.43;41.13
78892;BME280;68368;51.728;5.248;2023-06-10T04:41:25;101469.32;;;25.71;40.22
78892;BME280;68368;51.728;5.248;2023-06-10T04:43:30;101470.75;;;26.00;39.93
78892;BME280;68368;51.728;5.248;2023-06-10T04:45:33;101468.19;;;26.28;39.33
78892;BME280;68368;51.728;5.248;2023-06-10T04:47:36;101475.77;;;26.59;38.59
78892;BME280;68368;51.728;5.248;2023-06-10T04:49:40;101477.96;;;26.83;38.03
78892;BME280;68368;51.728;5.248;2023-06-10T04:51:43;101474.23;;;27.06;37.66
78892;BME280;68368;51.728;5.248;2023-06-10T04:53:46;101477.20;;;27.32;37.24
78892;BME280;68368;51.728;5.248;2023-06-10T04:55:51;101469.11;;;27.58;36.84
78892;BME280;68368;51.728;5.248;2023-06-10T04:57:54;101473.63;;;27.92;36.29
78892;BME280;68368;51.728;5.248;2023-06-10T04:59:57;101474.55;;;28.29;35.59
78892;BME280;68368;51.728;5.248;2023-06-10T05:02:01;101471.77;;;28.49;34.61
78892;BME280;68368;51.728;5.248;2023-06-10T05:04:04;101472.55;;;28.73;34.20
78892;BME280;68368;51.728;5.248;2023-06-10T05:06:08;101473.42;;;28.94;33.98
78892;BME280;68368;51.728;5.248;2023-06-10T05:08:11;101478.38;;;29.11;33.36
78892;BME280;68368;51.728;5.248;2023-06-10T05:10:15;101476.48;;;29.30;32.80
78892;BME280;68368;51.728;5.248;2023-06-10T05:12:18;101475.59;;;29.54;32.93
78892;BME280;68368;51.728;5.248;2023-06-10T05:14:22;101476.08;;;29.84;32.33
78892;BME280;68368;51.728;5.248;2023-06-10T05:16:25;101476.60;;;30.02;31.56
78892;BME280;68368;51.728;5.248;2023-06-10T05:18:29;101474.60;;;30.11;31.42
78892;BME280;68368;51.728;5.248;2023-06-10T05:20:33;101475.55;;;30.19;30.97
78892;BME280;68368;51.728;5.248;2023-06-10T05:22:37;101477.39;;;30.26;30.76
78892;BME280;68368;51.728;5.248;2023-06-10T05:24:40;101477.48;;;30.38;30.81
78892;BME280;68368;51.728;5.248;2023-06-10T05:26:51;101475.74;;;30.55;30.52
78892;BME280;68368;51.728;5.248;2023-06-10T05:28:54;101477.07;;;30.69;30.27
78892;BME280;68368;51.728;5.248;2023-06-10T05:30:57;101478.83;;;30.94;30.27
78892;BME280;68368;51.728;5.248;2023-06-10T05:33:02;101479.38;;;31.23;29.77
78892;BME280;68368;51.728;5.248;2023-06-10T05:35:06;101480.96;;;31.46;29.54
78892;BME280;68368;51.728;5.248;2023-06-10T05:37:09;101481.71;;;31.72;29.05
78892;BME280;68368;51.728;5.248;2023-06-10T05:39:13;101475.48;;;31.93;28.88
78892;BME280;68368;51.728;5.248;2023-06-10T05:41:17;101475.43;;;32.17;28.30
78892;BME280;68368;51.728;5.248;2023-06-10T05:43:20;101475.17;;;32.18;27.90
78892;BME280;68368;51.728;5.248;2023-06-10T05:45:23;101478.91;;;32.19;28.32
78892;BME280;68368;51.728;5.248;2023-06-10T05:47:26;101475.23;;;32.38;27.93
78892;BME280;68368;51.728;5.248;2023-06-10T05:49:32;101471.59;;;32.49;27.68
78892;BME280;68368;51.728;5.248;2023-06-10T05:51:34;101476.05;;;32.69;27.90
78892;BME280;68368;51.728;5.248;2023-06-10T05:53:37;101478.79;;;32.96;27.81
78892;BME280;68368;51.728;5.248;2023-06-10T05:55:42;101483.85;;;33.23;27.08
78892;BME280;68368;51.728;5.248;2023-06-10T05:57:49;101483.05;;;33.42;26.79
78892;BME280;68368;51.728;5.248;2023-06-10T06:00:01;101484.53;;;33.57;26.41
78892;BME280;68368;51.728;5.248;2023-06-10T06:02:05;101484.63;;;33.71;26.48
78892;BME280;68368;51.728;5.248;2023-06-10T06:04:09;101483.71;;;33.90;26.19
78892;BME280;68368;51.728;5.248;2023-06-10T06:06:14;101483.43;;;34.10;26.02
78892;BME280;68368;51.728;5.248;2023-06-10T06:08:16;101488.33;;;34.37;25.86
78892;BME280;68368;51.728;5.248;2023-06-10T06:10:20;101490.57;;;34.49;25.31
78892;BME280;68368;51.728;5.248;2023-06-10T06:12:23;101488.55;;;34.58;25.35
78892;BME280;68368;51.728;5.248;2023-06-10T06:14:30;101486.23;;;34.84;25.39
78892;BME280;68368;51.728;5.248;2023-06-10T06:16:33;101487.51;;;35.04;24.41
78892;BME280;68368;51.728;5.248;2023-06-10T06:18:37;101489.12;;;35.13;24.30
78892;BME280;68368;51.728;5.248;2023-06-10T06:20:41;101486.48;;;35.21;24.09
78892;BME280;68368;51.728;5.248;2023-06-10T06:22:45;101484.41;;;35.27;24.15
78892;BME280;68368;51.728;5.248;2023-06-10T06:24:50;101485.50;;;35.43;23.99
78892;BME280;68368;51.728;5.248;2023-06-10T06:26:53;101483.94;;;35.56;23.80
78892;BME280;68368;51.728;5.248;2023-06-10T06:28:57;101486.06;;;35.77;23.48
78892;BME280;68368;51.728;5.248;2023-06-10T06:31:00;101487.48;;;35.97;23.19
78892;BME280;68368;51.728;5.248;2023-06-10T06:33:04;101485.95;;;35.94;23.00
78892;BME280;68368;51.728;5.248;2023-06-10T06:35:09;101483.36;;;35.99;22.84
78892;BME280;68368;51.728;5.248;2023-06-10T06:37:13;101486.12;;;35.96;22.56
78892;BME280;68368;51.728;5.248;2023-06-10T06:39:16;101484.14;;;36.02;23.01
78892;BME280;68368;51.728;5.248;2023-06-10T06:41:20;101482.67;;;36.18;22.61
78892;BME280;68368;51.728;5.248;2023-06-10T06:43:23;101480.15;;;36.41;22.44
78892;BME280;68368;51.728;5.248;2023-06-10T06:45:26;101480.54;;;36.51;21.47
78892;BME280;68368;51.728;5.248;2023-06-10T06:47:30;101483.05;;;36.43;21.60
78892;BME280;68368;51.728;5.248;2023-06-10T06:49:36;101481.91;;;36.30;21.41
78892;BME280;68368;51.728;5.248;2023-06-10T06:51:47;101483.89;;;36.27;21.00
78892;BME280;68368;51.728;5.248;2023-06-10T06:53:51;101483.21;;;36.08;21.24
78892;BME280;68368;51.728;5.248;2023-06-10T06:55:54;101493.67;;;36.03;21.32
78892;BME280;68368;51.728;5.248;2023-06-10T06:57:57;101493.05;;;36.02;21.31
78892;BME280;68368;51.728;5.248;2023-06-10T07:00:01;101483.11;;;36.09;21.76
78892;BME280;68368;51.728;5.248;2023-06-10T07:02:05;101487.70;;;36.17;21.05
78892;BME280;68368;51.728;5.248;2023-06-10T07:04:10;101489.88;;;36.13;21.18
78892;BME280;68368;51.728;5.248;2023-06-10T07:06:16;101492.23;;;36.32;21.49
78892;BME280;68368;51.728;5.248;2023-06-10T07:08:21;101494.14;;;36.50;21.36
78892;BME280;68368;51.728;5.248;2023-06-10T07:10:25;101499.52;;;36.46;21.06
78892;BME280;68368;51.728;5.248;2023-06-10T07:12:28;101495.10;;;36.56;20.80
78892;BME280;68368;51.728;5.248;2023-06-10T07:14:31;101500.34;;;36.62;20.89
78892;BME280;68368;51.728;5.248;2023-06-10T07:16:35;101500.04;;;36.59;20.59
78892;BME280;68368;51.728;5.248;2023-06-10T07:18:38;101498.88;;;36.57;20.66
78892;BME280;68368;51.728;5.248;2023-06-10T07:20:46;101502.58;;;36.64;20.98
78892;BME280;68368;51.728;5.248;2023-06-10T07:22:49;101501.23;;;36.68;20.74
78892;BME280;68368;51.728;5.248;2023-06-10T07:24:52;101502.42;;;36.81;20.75
78892;BME280;68368;51.728;5.248;2023-06-10T07:26:55;101510.48;;;36.86;20.71
78892;BME280;68368;51.728;5.248;2023-06-10T07:29:06;101501.50;;;36.82;20.48
78892;BME280;68368;51.728;5.248;2023-06-10T07:31:10;101506.36;;;36.73;20.76
78892;BME280;68368;51.728;5.248;2023-06-10T07:33:14;101506.43;;;36.71;20.65
78892;BME280;68368;51.728;5.248;2023-06-10T07:35:17;101502.40;;;36.66;20.85
78892;BME280;68368;51.728;5.248;2023-06-10T07:37:20;101504.11;;;36.67;21.11
78892;BME280;68368;51.728;5.248;2023-06-10T07:39:23;101503.70;;;36.76;20.65
78892;BME280;68368;51.728;5.248;2023-06-10T07:41:27;101506.77;;;36.81;20.79
78892;BME280;68368;51.728;5.248;2023-06-10T07:43:33;101506.09;;;36.86;20.66
78892;BME280;68368;51.728;5.248;2023-06-10T07:45:36;101509.47;;;36.99;20.34
78892;BME280;68368;51.728;5.248;2023-06-10T07:47:44;101508.02;;;37.00;20.46
78892;BME280;68368;51.728;5.248;2023-06-10T07:49:47;101507.46;;;36.90;20.64
78892;BME280;68368;51.728;5.248;2023-06-10T07:51:53;101511.69;;;36.85;20.91
78892;BME280;68368;51.728;5.248;2023-06-10T07:53:56;101508.92;;;36.92;20.90
78892;BME280;68368;51.728;5.248;2023-06-10T07:56:00;101510.34;;;36.84;21.15
78892;BME280;68368;51.728;5.248;2023-06-10T07:58:03;101509.25;;;36.94;21.43
78892;BME280;68368;51.728;5.248;2023-06-10T08:00:10;101512.61;;;37.02;20.74
78892;BME280;68368;51.728;5.248;2023-06-10T08:02:13;101505.98;;;36.98;20.89
78892;BME280;68368;51.728;5.248;2023-06-10T08:04:16;101511.31;;;36.93;20.79
78892;BME280;68368;51.728;5.248;2023-06-10T08:06:20;101508.37;;;36.85;21.13
78892;BME280;68368;51.728;5.248;2023-06-10T08:08:23;101510.48;;;36.79;20.93
78892;BME280;68368;51.728;5.248;2023-06-10T08:10:27;101508.73;;;36.65;21.62
78892;BME280;68368;51.728;5.248;2023-06-10T08:12:31;101504.66;;;36.54;21.52
78892;BME280;68368;51.728;5.248;2023-06-10T08:14:34;101506.23;;;36.71;21.53
78892;BME280;68368;51.728;5.248;2023-06-10T08:16:41;101503.52;;;36.90;21.65
78892;BME280;68368;51.728;5.248;2023-06-10T08:18:44;101505.06;;;37.00;21.13
78892;BME280;68368;51.728;5.248;2023-06-10T08:20:48;101506.54;;;36.90;20.92
78892;BME280;68368;51.728;5.248;2023-06-10T08:22:51;101508.27;;;36.74;21.25
78892;BME280;68368;51.728;5.248;2023-06-10T08:24:54;101504.06;;;36.65;21.68
78892;BME280;68368;51.728;5.248;2023-06-10T08:26:58;101505.95;;;36.65;21.29
78892;BME280;68368;51.728;5.248;2023-06-10T08:29:01;101503.49;;;36.56;21.33
78892;BME280;68368;51.728;5.248;2023-06-10T08:31:04;101504.40;;;36.62;21.60
78892;BME280;68368;51.728;5.248;2023-06-10T08:33:09;101508.76;;;36.68;21.78
78892;BME280;68368;51.728;5.248;2023-06-10T08:35:12;101508.19;;;36.63;21.43
78892;BME280;68368;51.728;5.248;2023-06-10T08:37:16;101501.58;;;36.55;21.61
78892;BME280;68368;51.728;5.248;2023-06-10T08:39:19;101504.56;;;36.48;21.30
78892;BME280;68368;51.728;5.248;2023-06-10T08:41:27;101505.11;;;36.49;21.40
78892;BME280;68368;51.728;5.248;2023-06-10T08:43:33;101511.20;;;36.44;20.84
78892;BME280;68368;51.728;5.248;2023-06-10T08:45:40;101509.33;;;36.17;20.92
78892;BME280;68368;51.728;5.248;2023-06-10T08:47:46;101513.41;;;36.07;21.89
78892;BME280;68368;51.728;5.248;2023-06-10T08:49:51;101517.01;;;36.06;22.24
78892;BME280;68368;51.728;5.248;2023-06-10T08:51:58;101518.80;;;36.05;21.89
78892;BME280;68368;51.728;5.248;2023-06-10T08:54:04;101517.73;;;35.93;21.87
78892;BME280;68368;51.728;5.248;2023-06-10T08:56:10;101515.77;;;35.78;21.81
78892;BME280;68368;51.728;5.248;2023-06-10T08:58:15;101519.90;;;35.67;22.06
78892;BME280;68368;51.728;5.248;2023-06-10T09:00:18;101516.28;;;35.64;22.08
78892;BME280;68368;51.728;5.248;2023-06-10T09:02:22;101522.48;;;35.55;22.12
78892;BME280;68368;51.728;5.248;2023-06-10T09:04:27;101514.77;;;35.47;22.70
78892;BME280;68368;51.728;5.248;2023-06-10T09:06:31;101513.48;;;35.45;22.78
78892;BME280;68368;51.728;5.248;2023-06-10T09:08:35;101517.77;;;35.43;22.43
78892;BME280;68368;51.728;5.248;2023-06-10T09:10:39;101515.02;;;35.31;22.13
78892;BME280;68368;51.728;5.248;2023-06-10T09:12:43;101513.67;;;35.24;22.59
78892;BME280;68368;51.728;5.248;2023-06-10T09:14:46;101509.96;;;35.14;22.81
78892;BME280;68368;51.728;5.248;2023-06-10T09:16:49;101511.18;;;35.02;22.99
78892;BME280;68368;51.728;5.248;2023-06-10T09:18:55;101506.17;;;34.98;23.29
78892;BME280;68368;51.728;5.248;2023-06-10T09:20:59;101507.36;;;35.07;23.07
78892;BME280;68368;51.728;5.248;2023-06-10T09:23:02;101501.11;;;35.05;22.62
78892;BME280;68368;51.728;5.248;2023-06-10T09:25:07;101503.28;;;35.02;22.91
78892;BME280;68368;51.728;5.248;2023-06-10T09:27:11;101499.48;;;34.99;23.12
78892;BME280;68368;51.728;5.248;2023-06-10T09:29:14;101500.27;;;35.04;22.97
78892;BME280;68368;51.728;5.248;2023-06-10T09:31:18;101500.76;;;35.10;23.32
78892;BME280;68368;51.728;5.248;2023-06-10T09:33:25;101502.79;;;35.10;23.34
78892;BME280;68368;51.728;5.248;2023-06-10T09:35:30;101500.85;;;35.00;23.40
78892;BME280;68368;51.728;5.248;2023-06-10T09:37:33;101500.70;;;35.01;24.03
78892;BME280;68368;51.728;5.248;2023-06-10T09:39:42;101505.08;;;35.02;23.93
78892;BME280;68368;51.728;5.248;2023-06-10T09:41:46;101507.20;;;34.92;24.13
78892;BME280;68368;51.728;5.248;2023-06-10T09:43:49;101505.73;;;34.90;24.69
78892;BME280;68368;51.728;5.248;2023-06-10T09:45:53;101506.07;;;35.00;24.58
78892;BME280;68368;51.728;5.248;2023-06-10T09:47:59;101512.63;;;35.04;24.57
78892;BME280;68368;51.728;5.248;2023-06-10T09:50:02;101506.70;;;35.01;24.83
78892;BME280;68368;51.728;5.248;2023-06-10T09:52:06;101507.51;;;35.07;25.09
78892;BME280;68368;51.728;5.248;2023-06-10T09:54:12;101504.98;;;35.12;24.48
78892;BME280;68368;51.728;5.248;2023-06-10T09:56:15;101504.52;;;35.07;24.63
78892;BME280;68368;51.728;5.248;2023-06-10T09:58:18;101505.28;;;35.04;24.59
78892;BME280;68368;51.728;5.248;2023-06-10T10:00:39;101502.85;;;34.97;24.74
78892;BME280;68368;51.728;5.248;2023-06-10T10:02:47;101499.03;;;34.98;24.58
78892;BME280;68368;51.728;5.248;2023-06-10T10:04:51;101500.25;;;35.03;25.00
78892;BME280;68368;51.728;5.248;2023-06-10T10:06:54;101499.30;;;35.06;24.81
78892;BME280;68368;51.728;5.248;2023-06-10T10:08:57;101500.88;;;35.00;24.48
78892;BME280;68368;51.728;5.248;2023-06-10T10:11:01;101493.17;;;34.90;24.63
78892;BME280;68368;51.728;5.248;2023-06-10T10:13:05;101492.33;;;34.91;24.75
78892;BME280;68368;51.728;5.248;2023-06-10T10:15:11;101495.15;;;34.98;24.96
78892;BME280;68368;51.728;5.248;2023-06-10T10:17:15;101488.78;;;34.99;24.92
78892;BME280;68368;51.728;5.248;2023-06-10T10:19:23;101493.70;;;34.94;24.99
78892;BME280;68368;51.728;5.248;2023-06-10T10:21:32;101495.58;;;34.89;25.25
78892;BME280;68368;51.728;5.248;2023-06-10T10:23:44;101494.17;;;34.91;24.60
78892;BME280;68368;51.728;5.248;2023-06-10T10:25:53;101491.52;;;34.99;25.12
78892;BME280;68368;51.728;5.248;2023-06-10T10:27:58;101487.53;;;35.01;24.93
78892;BME280;68368;51.728;5.248;2023-06-10T10:30:05;101485.34;;;34.88;24.84
78892;BME280;68368;51.728;5.248;2023-06-10T10:32:10;101481.61;;;34.91;24.73
78892;BME280;68368;51.728;5.248;2023-06-10T10:34:19;101482.42;;;34.91;24.22
78892;BME280;68368;51.728;5.248;2023-06-10T10:36:24;101486.66;;;34.82;24.26
78892;BME280;68368;51.728;5.248;2023-06-10T10:38:29;101477.17;;;34.74;24.56
78892;BME280;68368;51.728;5.248;2023-06-10T10:40:33;101486.36;;;34.82;24.89
78892;BME280;68368;51.728;5.248;2023-06-10T10:42:39;101479.59;;;34.79;24.72
78892;BME280;68368;51.728;5.248;2023-06-10T10:44:43;101476.07;;;34.81;24.24
78892;BME280;68368;51.728;5.248;2023-06-10T10:46:50;101479.84;;;34.89;23.96
78892;BME280;68368;51.728;5.248;2023-06-10T10:48:57;101479.36;;;34.97;23.64
78892;BME280;68368;51.728;5.248;2023-06-10T10:51:01;101484.73;;;34.90;23.63